Time;durP1;ratioP1;P1;durP2;ratioP2;P2;SDS_P1;SDS_P2;PMS_P1;PMS_P2;Temp;Humidity;BMP_temperature;BMP_pressure;BME280_temperature;BME280_humidity;BME280_pressure;Samples;Min_cycle;Max_cycle;Signal;HPM_P1;HPM_P2
2023/08/17 00:01:21;;;;;;;4.40;3.90;;;24.60;79.50;24.00;96588.00;;;;5055681;28;20310;-87
2023/08/17 00:03:51;;;;;;;3.43;3.23;;;24.60;79.80;24.00;96589.00;;;;5055669;28;20236;-87
2023/08/17 00:06:18;;;;;;;3.53;3.33;;;24.50;79.70;24.00;96595.00;;;;5055788;28;20220;-87
2023/08/17 00:08:51;;;;;;;3.50;3.30;;;24.50;79.80;24.00;96588.00;;;;5055565;28;20267;-87
2023/08/17 00:11:18;;;;;;;3.80;3.50;;;24.50;79.80;23.90;96580.00;;;;5055673;28;20587;-87
2023/08/17 00:13:45;;;;;;;3.60;3.30;;;24.40;79.70;23.90;96585.00;;;;5055554;28;20288;-88
2023/08/17 00:16:13;;;;;;;3.67;3.37;;;24.40;79.80;23.90;96573.00;;;;5055517;28;20228;-88
2023/08/17 00:18:43;;;;;;;4.10;3.80;;;24.40;79.80;23.90;96581.00;;;;5055419;28;20199;-88
2023/08/17 00:21:11;;;;;;;3.53;3.23;;;24.40;79.80;23.80;96573.00;;;;5055302;28;20603;-88
2023/08/17 00:23:39;;;;;;;4.00;3.60;;;24.30;79.70;23.80;96571.00;;;;5055219;28;20291;-87
2023/08/17 00:26:06;;;;;;;4.07;3.63;;;24.30;79.80;23.70;96567.00;;;;5055667;28;20199;-88
2023/08/17 00:28:33;;;;;;;3.80;3.50;;;24.30;79.80;23.70;96571.00;;;;5055170;28;20200;-87
2023/08/17 00:31:01;;;;;;;4.33;3.90;;;24.20;79.70;23.70;96565.00;;;;5054810;28;20699;-88
2023/08/17 00:33:28;;;;;;;3.37;3.17;;;24.20;79.90;23.70;96568.00;;;;5053775;28;20224;-87
2023/08/17 00:35:55;;;;;;;3.90;3.60;;;24.20;80.10;23.60;96571.00;;;;5053495;28;20234;-87
2023/08/17 00:38:27;;;;;;;3.70;3.40;;;24.20;80.20;23.60;96575.00;;;;5052142;28;20231;-88
2023/08/17 00:40:56;;;;;;;3.90;3.57;;;24.10;80.10;23.60;96578.00;;;;5052099;28;20239;-87
2023/08/17 00:43:30;;;;;;;4.47;3.97;;;24.10;80.50;23.60;96579.00;;;;5052187;28;20205;-87
2023/08/17 00:45:57;;;;;;;3.60;3.30;;;24.10;80.50;23.60;96582.00;;;;5052583;28;20303;-88
2023/08/17 00:48:24;;;;;;;3.90;3.60;;;24.10;80.60;23.60;96575.00;;;;5051857;28;20197;-88
2023/08/17 00:50:57;;;;;;;4.57;4.20;;;24.10;80.50;23.60;96583.00;;;;5053440;28;20285;-88
2023/08/17 00:53:29;;;;;;;4.30;4.00;;;24.10;80.30;23.60;96569.00;;;;5055106;28;20226;-88
2023/08/17 00:56:05;;;;;;;3.93;3.63;;;24.10;80.30;23.50;96572.00;;;;5054642;28;20212;-88
2023/08/17 00:58:36;;;;;;;4.20;3.90;;;24.10;80.30;23.50;96570.00;;;;5054696;28;20181;-87
2023/08/17 01:01:03;;;;;;;4.03;3.73;;;24.00;80.30;23.50;96575.00;;;;5054694;28;20271;-88
2023/08/17 01:03:30;;;;;;;3.80;3.60;;;24.00;80.30;23.50;96589.00;;;;5054352;28;20289;-88
2023/08/17 01:05:58;;;;;;;4.40;4.03;;;24.00;80.40;23.40;96580.00;;;;5054600;28;20739;-88
2023/08/17 01:08:31;;;;;;;4.57;4.17;;;24.00;80.50;23.40;96583.00;;;;5054316;28;20204;-87
2023/08/17 01:11:09;;;;;;;4.33;4.03;;;23.90;80.50;23.40;96581.00;;;;5054411;28;20238;-88
2023/08/17 01:13:54;;;;;;;4.20;3.87;;;23.90;80.70;23.40;96582.00;;;;5054735;28;20213;-87
2023/08/17 01:16:30;;;;;;;4.33;3.93;;;23.90;80.90;23.40;96575.00;;;;5054566;28;20228;-87
2023/08/17 01:19:06;;;;;;;3.67;3.30;;;23.90;81.10;23.40;96572.00;;;;5054208;28;20277;-88
2023/08/17 01:21:49;;;;;;;4.47;4.10;;;23.90;81.20;23.40;96574.00;;;;5054144;28;20223;-87
2023/08/17 01:24:17;;;;;;;4.67;4.27;;;23.90;81.20;23.40;96574.00;;;;5054341;28;20220;-87
2023/08/17 01:26:53;;;;;;;5.37;4.30;;;23.90;81.40;23.40;96576.00;;;;5054069;28;20216;-87
2023/08/17 01:29:23;;;;;;;4.60;4.20;;;23.90;81.40;23.40;96578.00;;;;5053418;28;20200;-87
2023/08/17 01:32:05;;;;;;;4.13;3.70;;;23.90;81.30;23.40;96578.00;;;;5052084;28;20234;-88
2023/08/17 01:34:40;;;;;;;4.23;3.67;;;23.90;81.20;23.40;96576.00;;;;5051735;28;20284;-88
2023/08/17 01:37:12;;;;;;;4.30;3.93;;;23.90;81.10;23.40;96581.00;;;;5051235;28;20211;-87
2023/08/17 01:39:51;;;;;;;4.67;4.27;;;23.90;81.10;23.40;96577.00;;;;5051556;28;20183;-87
2023/08/17 01:42:19;;;;;;;5.13;4.60;;;23.90;81.00;23.40;96567.00;;;;5051084;28;20649;-87
2023/08/17 01:44:46;;;;;;;4.53;4.23;;;23.90;81.20;23.40;96576.00;;;;5051360;28;20197;-88
2023/08/17 01:47:13;;;;;;;4.00;3.70;;;23.90;81.20;23.40;96571.00;;;;5053394;28;20610;-87
2023/08/17 01:49:44;;;;;;;4.20;3.87;;;23.90;81.20;23.30;96574.00;;;;5054671;28;20235;-88
2023/08/17 01:52:11;;;;;;;4.40;4.03;;;23.90;81.20;23.30;96574.00;;;;5054033;28;20653;-86
2023/08/17 01:54:42;;;;;;;3.77;3.47;;;23.90;81.20;23.30;96577.00;;;;5054036;28;20208;-87
2023/08/17 01:57:09;;;;;;;4.63;4.07;;;23.90;81.10;23.30;96578.00;;;;5054229;28;20292;-87
2023/08/17 01:59:37;;;;;;;5.73;4.40;;;23.90;81.30;23.30;96574.00;;;;5053843;28;20231;-87
2023/08/17 02:02:04;;;;;;;4.50;4.10;;;23.80;81.30;23.30;96575.00;;;;5053912;28;20303;-87
2023/08/17 02:04:31;;;;;;;4.40;4.10;;;23.80;81.40;23.30;96581.00;;;;5053437;28;20235;-87
2023/08/17 02:06:58;;;;;;;4.20;3.90;;;23.80;81.40;23.30;96580.00;;;;5053435;28;20197;-87
2023/08/17 02:09:25;;;;;;;4.80;4.40;;;23.80;81.30;23.30;96581.00;;;;5053619;28;20235;-87
2023/08/17 02:11:54;;;;;;;5.17;4.67;;;23.80;81.20;23.30;96579.00;;;;5053464;28;20259;-87
2023/08/17 02:14:21;;;;;;;4.77;4.37;;;23.80;81.00;23.20;96582.00;;;;5053819;28;20279;-87
2023/08/17 02:16:57;;;;;;;4.63;4.23;;;23.80;81.00;23.20;96577.00;;;;5053986;28;20658;-87
2023/08/17 02:19:24;;;;;;;4.00;3.80;;;23.80;81.00;23.20;96573.00;;;;5053282;28;20215;-87
2023/08/17 02:21:51;;;;;;;4.37;3.97;;;23.80;81.00;23.20;96582.00;;;;5053498;28;20627;-87
2023/08/17 02:24:19;;;;;;;4.80;4.40;;;23.70;81.10;23.20;96587.00;;;;5051554;28;20691;-87
2023/08/17 02:26:48;;;;;;;5.20;4.40;;;23.70;81.20;23.20;96579.00;;;;5051878;28;20239;-87
2023/08/17 02:29:19;;;;;;;4.90;4.50;;;23.70;81.30;23.10;96581.00;;;;5050430;28;20211;-86
2023/08/17 02:31:48;;;;;;;4.43;4.13;;;23.70;81.20;23.10;96577.00;;;;5050143;28;20678;-87
2023/08/17 02:34:15;;;;;;;4.77;4.37;;;23.70;81.30;23.10;96570.00;;;;5050156;28;20238;-87
2023/08/17 02:36:48;;;;;;;4.60;4.20;;;23.70;81.50;23.10;96560.00;;;;5050779;28;20610;-87
2023/08/17 02:39:24;;;;;;;4.63;4.27;;;23.70;81.40;23.10;96555.00;;;;5051563;28;20188;-87
2023/08/17 02:41:51;;;;;;;4.40;4.00;;;23.70;81.40;23.10;96559.00;;;;5051823;28;20216;-87
2023/08/17 02:44:22;;;;;;;4.70;4.37;;;23.60;81.30;23.10;96547.00;;;;5052480;28;20219;-87
2023/08/17 02:46:49;;;;;;;4.50;4.20;;;23.60;81.10;23.00;96551.00;;;;5052530;28;20184;-87
2023/08/17 02:49:16;;;;;;;5.70;4.63;;;23.60;81.30;23.00;96550.00;;;;5052462;28;20234;-87
2023/08/17 02:51:43;;;;;;;4.57;4.27;;;23.60;81.30;23.00;96560.00;;;;5052607;28;20261;-87
2023/08/17 02:54:12;;;;;;;5.27;4.80;;;23.60;81.40;23.00;96548.00;;;;5052193;28;20254;-87
2023/08/17 02:56:39;;;;;;;4.90;4.50;;;23.60;81.40;23.00;96550.00;;;;5052418;28;20205;-87
2023/08/17 02:59:07;;;;;;;4.87;4.57;;;23.60;81.40;23.00;96559.00;;;;5052288;28;20201;-87
2023/08/17 03:01:41;;;;;;;4.57;4.23;;;23.60;81.40;23.00;96552.00;;;;5052082;28;20226;-87
2023/08/17 03:04:08;;;;;;;4.27;3.97;;;23.60;81.10;23.00;96563.00;;;;5051923;28;20259;-87
2023/08/17 03:06:36;;;;;;;5.07;4.67;;;23.60;81.30;23.00;96560.00;;;;5052350;28;20206;-87
2023/08/17 03:09:03;;;;;;;4.70;4.30;;;23.60;81.10;23.00;96560.00;;;;5052200;28;20206;-88
2023/08/17 03:11:31;;;;;;;5.00;4.60;;;23.60;81.00;23.00;96552.00;;;;5051477;28;20696;-87
2023/08/17 03:13:59;;;;;;;4.13;3.80;;;23.50;80.90;23.00;96555.00;;;;5052079;28;20688;-87
2023/08/17 03:16:27;;;;;;;7.30;4.33;;;23.50;80.90;22.90;96549.00;;;;5051970;28;20219;-87
2023/08/17 03:18:57;;;;;;;4.90;4.53;;;23.50;80.80;22.90;96551.00;;;;5051167;28;20207;-87
2023/08/17 03:21:24;;;;;;;4.70;4.30;;;23.50;80.50;22.90;96546.00;;;;5051166;28;20220;-87
2023/08/17 03:23:57;;;;;;;4.77;4.10;;;23.50;80.60;22.90;96542.00;;;;5049408;28;20280;-87
2023/08/17 03:26:30;;;;;;;4.73;4.33;;;23.50;80.50;22.80;96544.00;;;;5049493;28;20274;-87
2023/08/17 03:28:57;;;;;;;5.00;4.67;;;23.40;80.60;22.80;96543.00;;;;5049361;28;20302;-87
2023/08/17 03:31:24;;;;;;;4.87;4.47;;;23.40;80.70;22.80;96548.00;;;;5049643;28;20307;-87
2023/08/17 03:34:01;;;;;;;5.97;4.20;;;23.40;81.50;22.80;96541.00;;;;5048928;28;20283;-87
2023/08/17 03:36:33;;;;;;;4.83;4.43;;;23.40;80.80;22.80;96542.00;;;;5049483;28;20207;-87
2023/08/17 03:39:02;;;;;;;4.07;3.87;;;23.40;80.60;22.80;96546.00;;;;5051356;28;20210;-87
2023/08/17 03:41:36;;;;;;;4.40;4.10;;;23.30;80.70;22.70;96546.00;;;;5051489;28;20751;-87
2023/08/17 03:44:18;;;;;;;4.50;4.20;;;23.30;80.80;22.70;96546.00;;;;5051631;28;20204;-87
2023/08/17 03:46:45;;;;;;;4.40;4.10;;;23.30;80.80;22.70;96549.00;;;;5051911;28;20231;-87
2023/08/17 03:49:12;;;;;;;4.87;4.47;;;23.30;80.80;22.70;96550.00;;;;5051442;28;20228;-87
2023/08/17 03:51:41;;;;;;;4.43;4.03;;;23.30;80.70;22.60;96554.00;;;;5051936;28;20231;-87
2023/08/17 03:54:08;;;;;;;4.63;4.20;;;23.30;80.60;22.60;96549.00;;;;5051606;28;20289;-87
2023/08/17 03:56:35;;;;;;;4.87;4.50;;;23.30;80.70;22.60;96561.00;;;;5052112;28;20232;-87
2023/08/17 03:59:05;;;;;;;5.03;4.63;;;23.20;80.60;22.60;96558.00;;;;5051717;28;20230;-87
2023/08/17 04:01:37;;;;;;;5.90;4.53;;;23.20;80.50;22.50;96566.00;;;;5051812;28;20298;-87
2023/08/17 04:04:19;;;;;;;;;;;;;;;;;;;;;
2023/08/17 04:06:50;;;;;;;5.00;4.60;;;23.10;81.10;22.40;96569.00;;;;5051448;28;20211;-87
2023/08/17 04:09:20;;;;;;;4.77;4.37;;;23.10;80.60;22.40;96560.00;;;;5051215;28;20228;-87
2023/08/17 04:11:47;;;;;;;4.83;4.47;;;23.10;80.90;22.40;96559.00;;;;5051746;28;20218;-87
2023/08/17 04:14:14;;;;;;;4.67;4.37;;;23.10;80.90;22.40;96564.00;;;;5051152;28;20229;-87
2023/08/17 04:16:43;;;;;;;5.20;4.80;;;23.00;80.90;22.40;96562.00;;;;5051330;28;20225;-87
2023/08/17 04:19:10;;;;;;;5.20;4.80;;;23.10;81.00;22.40;96567.00;;;;5049794;28;20632;-87
2023/08/17 04:21:40;;;;;;;5.50;5.07;;;23.00;80.90;22.40;96568.00;;;;5048614;28;20224;-87
2023/08/17 04:24:09;;;;;;;5.03;4.63;;;23.00;80.80;22.40;96568.00;;;;5051518;28;20249;-86
2023/08/17 04:26:38;;;;;;;5.13;4.63;;;23.00;80.90;22.40;96571.00;;;;5052309;28;20221;-87
2023/08/17 04:29:08;;;;;;;5.87;5.37;;;23.00;80.90;22.30;96571.00;;;;5052638;28;20194;-87
2023/08/17 04:31:39;;;;;;;6.20;5.57;;;23.00;80.90;22.30;96571.00;;;;5052380;28;20860;-87
2023/08/17 04:34:06;;;;;;;5.20;4.80;;;23.00;81.10;22.30;96570.00;;;;5052973;28;20236;-86
2023/08/17 04:36:36;;;;;;;6.57;5.97;;;23.00;81.40;22.30;96573.00;;;;5055558;28;20290;-86
2023/08/17 04:39:07;;;;;;;6.80;5.93;;;22.90;81.50;22.30;96572.00;;;;5055015;28;20233;-86
2023/08/17 04:41:39;;;;;;;6.53;6.03;;;23.00;81.80;22.30;96574.00;;;;5055180;28;20226;-86
2023/08/17 04:44:08;;;;;;;6.60;6.00;;;23.00;82.00;22.30;96579.00;;;;5055312;28;20246;-87
2023/08/17 04:46:36;;;;;;;7.17;6.57;;;22.90;82.10;22.30;96580.00;;;;5055319;28;20572;-87
2023/08/17 04:49:03;;;;;;;7.07;6.47;;;22.90;82.40;22.40;96576.00;;;;5054937;28;20241;-88
2023/08/17 04:51:31;;;;;;;7.60;6.77;;;22.90;82.60;22.40;96586.00;;;;5055057;28;20237;-87
2023/08/17 04:53:58;;;;;;;6.27;5.77;;;23.00;82.70;22.40;96588.00;;;;5054965;28;20221;-87
2023/08/17 04:56:28;;;;;;;7.10;6.50;;;23.00;82.70;22.40;96582.00;;;;5055075;28;20640;-87
2023/08/17 04:58:56;;;;;;;6.87;6.27;;;22.90;82.80;22.40;96592.00;;;;5055008;28;20236;-87
2023/08/17 05:01:24;;;;;;;6.57;6.13;;;23.00;82.70;22.40;96590.00;;;;5054847;28;20627;-87
2023/08/17 05:03:52;;;;;;;6.23;5.77;;;23.00;82.90;22.40;96596.00;;;;5054383;28;20375;-87
2023/08/17 05:06:19;;;;;;;6.77;6.20;;;23.00;83.00;22.40;96602.00;;;;5054345;28;20284;-87
2023/08/17 05:08:46;;;;;;;7.47;6.87;;;23.00;83.20;22.50;96601.00;;;;5054904;28;20357;-87
2023/08/17 05:11:13;;;;;;;6.53;6.03;;;23.00;83.30;22.50;96602.00;;;;5054229;28;20257;-87
2023/08/17 05:13:40;;;;;;;7.17;6.57;;;23.00;83.40;22.50;96593.00;;;;5053988;28;20207;-88
2023/08/17 05:16:09;;;;;;;8.27;6.47;;;23.00;83.50;22.50;96592.00;;;;5051405;28;20198;-87
2023/08/17 05:18:36;;;;;;;9.93;9.13;;;23.00;83.50;22.60;96588.00;;;;5051781;28;20294;-87
2023/08/17 05:21:03;;;;;;;9.20;8.13;;;23.10;83.70;22.60;96593.00;;;;5051465;28;20246;-87
2023/08/17 05:23:30;;;;;;;9.90;9.00;;;23.10;83.80;22.60;96593.00;;;;5051906;28;20227;-87
2023/08/17 05:25:57;;;;;;;9.40;8.50;;;23.10;83.90;22.60;96586.00;;;;5052059;28;20611;-87
2023/08/17 05:28:24;;;;;;;11.23;9.90;;;23.10;83.90;22.70;96591.00;;;;5052220;28;20690;-87
2023/08/17 05:30:53;;;;;;;9.80;8.90;;;23.20;84.00;22.70;96589.00;;;;5054049;28;20327;-87
2023/08/17 05:33:21;;;;;;;9.63;8.83;;;23.20;84.10;22.70;96593.00;;;;5054595;28;20205;-88
2023/08/17 05:35:55;;;;;;;10.17;9.27;;;23.20;84.10;22.70;96604.00;;;;5052997;28;20257;-88
2023/08/17 05:38:22;;;;;;;11.40;10.30;;;23.20;84.20;22.70;96606.00;;;;5054072;28;20727;-88
2023/08/17 05:40:55;;;;;;;9.73;8.83;;;23.20;84.40;22.80;96609.00;;;;5054036;28;20222;-87
2023/08/17 05:43:22;;;;;;;8.17;7.57;;;23.30;84.60;22.80;96615.00;;;;5054018;28;20309;-87
2023/08/17 05:45:50;;;;;;;8.73;7.77;;;23.30;84.60;22.90;96617.00;;;;5053992;28;20591;-87
2023/08/17 05:48:23;;;;;;;7.30;6.70;;;23.30;84.70;22.90;96609.00;;;;5053937;28;20231;-88
2023/08/17 05:50:50;;;;;;;6.43;5.93;;;23.40;84.80;22.90;96612.00;;;;5053536;28;20235;-88
2023/08/17 05:53:17;;;;;;;5.57;5.17;;;23.40;84.70;23.00;96619.00;;;;5053821;28;20240;-88
2023/08/17 05:55:44;;;;;;;6.73;6.13;;;23.40;84.80;23.00;96615.00;;;;5053653;28;20279;-88
2023/08/17 05:58:11;;;;;;;6.07;5.63;;;23.40;84.80;23.00;96608.00;;;;5053460;28;20278;-87
2023/08/17 06:00:39;;;;;;;5.73;5.23;;;23.50;85.00;23.10;96614.00;;;;5053303;28;20274;-88
2023/08/17 06:03:06;;;;;;;5.90;5.50;;;23.50;85.00;23.10;96619.00;;;;5053336;28;20311;-87
2023/08/17 06:05:35;;;;;;;6.73;6.23;;;23.50;84.90;23.10;96616.00;;;;5053451;28;20198;-88
2023/08/17 06:08:04;;;;;;;5.77;5.37;;;23.60;85.00;23.10;96618.00;;;;5051894;28;20200;-88
2023/08/17 06:10:31;;;;;;;6.83;6.33;;;23.60;85.00;23.20;96609.00;;;;5051988;28;20282;-87
2023/08/17 06:12:58;;;;;;;6.77;6.27;;;23.60;85.80;23.20;96613.00;;;;5051114;28;20227;-88
2023/08/17 06:15:26;;;;;;;6.67;6.07;;;23.70;85.20;23.30;96612.00;;;;5051034;28;20235;-88
2023/08/17 06:17:53;;;;;;;6.37;5.93;;;23.70;85.10;23.30;96614.00;;;;5050693;28;20228;-87
2023/08/17 06:20:20;;;;;;;6.17;5.67;;;23.70;85.20;23.30;96616.00;;;;5050253;28;20289;-87
2023/08/17 06:22:50;;;;;;;7.53;6.83;;;23.80;85.40;23.40;96620.00;;;;5050814;28;20247;-86
2023/08/17 06:25:17;;;;;;;6.70;6.13;;;23.80;85.40;23.40;96619.00;;;;5050751;28;20193;-87
2023/08/17 06:27:44;;;;;;;7.80;6.10;;;23.90;85.60;23.50;96620.00;;;;5052686;28;20251;-89
2023/08/17 06:30:13;;;;;;;6.43;6.03;;;23.90;85.70;23.50;96620.00;;;;5052692;28;20201;-86
2023/08/17 06:32:40;;;;;;;6.60;6.10;;;23.90;85.80;23.60;96620.00;;;;5052577;28;20302;-87
2023/08/17 06:35:09;;;;;;;7.00;6.50;;;24.00;85.90;23.60;96621.00;;;;5052487;28;20250;-87
2023/08/17 06:37:36;;;;;;;7.60;7.00;;;24.00;85.80;23.70;96619.00;;;;5052612;28;20307;-86
2023/08/17 06:40:06;;;;;;;7.20;6.70;;;24.00;85.80;23.70;96621.00;;;;5052506;28;20609;-87
2023/08/17 06:42:34;;;;;;;7.67;6.97;;;24.10;85.80;23.80;96631.00;;;;5052505;28;20574;-90
2023/08/17 06:45:01;;;;;;;7.97;7.10;;;24.10;85.90;23.80;96633.00;;;;5052865;28;20232;-88
2023/08/17 06:47:28;;;;;;;7.87;7.17;;;24.20;85.90;23.90;96635.00;;;;5052242;28;20287;-88
2023/08/17 06:49:57;;;;;;;8.00;7.20;;;24.20;85.90;23.90;96636.00;;;;5052857;28;20209;-86
2023/08/17 06:52:24;;;;;;;7.57;6.97;;;24.30;86.10;24.00;96635.00;;;;5052328;28;20689;-88
2023/08/17 06:54:51;;;;;;;7.40;6.80;;;24.30;86.20;24.10;96630.00;;;;5052623;28;20846;-87
2023/08/17 06:57:21;;;;;;;9.13;7.73;;;24.40;86.30;24.10;96627.00;;;;5052357;28;20232;-89
2023/08/17 06:59:48;;;;;;;8.10;7.50;;;24.40;86.30;24.20;96625.00;;;;5052606;28;20653;-89
2023/08/17 07:02:15;;;;;;;8.03;7.33;;;24.50;86.50;24.30;96626.00;;;;5051138;28;20304;-88
2023/08/17 07:04:43;;;;;;;8.83;8.00;;;24.60;86.50;24.30;96622.00;;;;5051260;28;20657;-86
2023/08/17 07:07:10;;;;;;;7.70;7.03;;;24.60;86.20;24.40;96619.00;;;;5051749;28;20904;-88
2023/08/17 07:09:38;;;;;;;7.80;7.20;;;24.70;86.10;24.40;96628.00;;;;5051440;28;20661;-88
2023/08/17 07:12:05;;;;;;;7.20;6.70;;;24.80;86.10;24.50;96629.00;;;;5051005;28;20717;-89
2023/08/17 07:14:34;;;;;;;8.50;7.80;;;24.80;86.20;24.60;96637.00;;;;5050784;28;20634;-87
2023/08/17 07:17:01;;;;;;;8.13;7.50;;;24.90;86.20;24.70;96637.00;;;;5051139;28;20641;-87
2023/08/17 07:19:28;;;;;;;8.13;7.43;;;25.00;86.30;24.80;96644.00;;;;5050647;28;20219;-86
2023/08/17 07:21:55;;;;;;;8.47;7.67;;;25.10;86.30;24.80;96639.00;;;;5052379;28;20216;-87
2023/08/17 07:24:23;;;;;;;7.40;6.87;;;25.10;86.30;24.90;96647.00;;;;5048875;28;20236;-87
2023/08/17 07:26:50;;;;;;;7.57;6.90;;;25.20;86.30;25.00;96644.00;;;;5051797;28;20224;-89
2023/08/17 07:29:17;;;;;;;6.87;6.27;;;25.30;86.40;25.10;96648.00;;;;5053542;28;20228;-88
2023/08/17 07:31:46;;;;;;;7.03;6.50;;;25.40;86.50;25.20;96648.00;;;;5053310;28;20244;-88
2023/08/17 07:34:13;;;;;;;7.63;7.00;;;25.50;86.50;25.30;96649.00;;;;5052273;28;20212;-87
2023/08/17 07:36:40;;;;;;;7.10;6.53;;;25.60;86.80;25.40;96647.00;;;;5053525;28;20568;-88
2023/08/17 07:39:08;;;;;;;7.27;6.77;;;25.70;85.80;25.50;96645.00;;;;5053672;28;20677;-87
2023/08/17 07:41:35;;;;;;;7.03;6.43;;;25.80;85.80;25.60;96652.00;;;;5053289;28;20212;-87
2023/08/17 07:44:02;;;;;;;6.70;6.20;;;25.80;85.60;25.70;96655.00;;;;5053487;28;20303;-87
2023/08/17 07:46:29;;;;;;;6.67;6.17;;;26.00;85.70;25.90;96660.00;;;;5053483;28;20231;-87
2023/08/17 07:48:58;;;;;;;7.80;6.90;;;26.10;85.50;26.00;96657.00;;;;5052918;28;20636;-87
2023/08/17 07:51:25;;;;;;;7.60;6.90;;;26.20;85.10;26.10;96663.00;;;;5053737;28;20266;-89
2023/08/17 07:53:52;;;;;;;7.07;6.47;;;26.30;84.70;26.20;96661.00;;;;5053470;28;20291;-88
2023/08/17 07:56:19;;;;;;;6.60;6.13;;;26.40;84.20;26.30;96657.00;;;;5053436;28;20232;-88
2023/08/17 07:58:46;;;;;;;6.73;6.23;;;26.50;84.10;26.30;96652.00;;;;5054595;28;20903;-87
2023/08/17 08:01:14;;;;;;;6.63;6.03;;;26.60;84.20;26.40;96648.00;;;;5057010;28;20252;-88
2023/08/17 08:03:41;;;;;;;8.10;7.40;;;26.70;84.00;26.50;96653.00;;;;5055338;28;20220;-89
2023/08/17 08:06:09;;;;;;;6.67;6.10;;;26.80;83.80;26.60;96652.00;;;;5055242;28;20220;-88
2023/08/17 08:08:36;;;;;;;7.13;6.53;;;26.80;83.50;26.70;96650.00;;;;5055420;28;20279;-88
2023/08/17 08:11:04;;;;;;;6.45;5.85;;;26.90;83.50;26.80;96646.00;;;;5055014;28;20231;-87
2023/08/17 08:13:31;;;;;;;6.50;6.00;;;27.00;83.00;26.90;96647.00;;;;5055131;28;20219;-88
2023/08/17 08:16:00;;;;;;;6.25;5.85;;;27.10;82.80;27.00;96639.00;;;;5054975;28;20227;-89
2023/08/17 08:18:27;;;;;;;6.38;5.88;;;27.20;82.60;27.10;96638.00;;;;5057704;28;20201;-90
2023/08/17 08:20:54;;;;;;;6.15;5.65;;;27.30;82.40;27.20;96641.00;;;;5058464;28;20348;-87
2023/08/17 08:23:23;;;;;;;6.13;5.68;;;27.40;82.30;27.30;96648.00;;;;5058013;28;20224;-88
2023/08/17 08:25:50;;;;;;;6.80;6.20;;;27.50;82.10;27.40;96648.00;;;;5057672;28;20650;-87
2023/08/17 08:28:17;;;;;;;6.20;5.55;;;27.60;81.80;27.50;96646.00;;;;5057341;28;20260;-91
2023/08/17 08:30:44;;;;;;;6.00;5.55;;;27.70;81.40;27.60;96640.00;;;;5056810;28;20217;-89
2023/08/17 08:33:12;;;;;;;5.65;5.25;;;27.80;81.20;27.70;96652.00;;;;5057026;28;20245;-90
2023/08/17 08:35:40;;;;;;;5.65;5.18;;;27.90;81.40;27.70;96639.00;;;;5057340;28;20246;-89
2023/08/17 08:38:10;;;;;;;5.47;5.07;;;28.00;81.30;27.90;96643.00;;;;5058166;28;20205;-89
2023/08/17 08:40:43;;;;;;;5.82;5.43;;;28.00;80.80;28.00;96651.00;;;;5057455;28;20282;-90
2023/08/17 08:43:11;;;;;;;5.38;4.97;;;28.20;79.70;28.10;96646.00;;;;5056343;28;20185;-88
2023/08/17 08:45:40;;;;;;;5.38;4.97;;;28.30;80.10;28.20;96653.00;;;;5056713;28;20224;-89
2023/08/17 08:48:09;;;;;;;5.22;4.82;;;28.40;79.70;28.30;96647.00;;;;5056491;28;20200;-89
2023/08/17 08:50:41;;;;;;;4.70;4.40;;;28.50;80.00;28.40;96651.00;;;;5056630;28;20623;-89
2023/08/17 08:53:15;;;;;;;5.30;4.93;;;28.60;79.50;28.60;96651.00;;;;5056103;28;20203;-89
2023/08/17 08:55:58;;;;;;;5.15;4.65;;;28.70;78.80;28.70;96646.00;;;;5054395;28;20204;-88
2023/08/17 08:58:27;;;;;;;5.25;4.85;;;28.80;78.40;28.80;96651.00;;;;5054852;28;20314;-88
2023/08/17 09:00:55;;;;;;;4.93;4.63;;;29.00;78.60;28.90;96651.00;;;;5053953;28;20448;-89
2023/08/17 09:03:24;;;;;;;5.28;4.88;;;29.10;78.80;29.00;96648.00;;;;5053713;28;20239;-90
2023/08/17 09:05:53;;;;;;;6.25;5.30;;;29.20;78.90;29.20;96650.00;;;;5054017;28;20673;-89
2023/08/17 09:08:24;;;;;;;4.40;4.10;;;29.30;77.60;29.30;96647.00;;;;5054016;28;20228;-90
2023/08/17 09:10:52;;;;;;;4.85;4.45;;;29.40;77.00;29.40;96647.00;;;;5052325;28;20266;-89
2023/08/17 09:13:19;;;;;;;4.78;4.47;;;29.50;76.30;29.50;96647.00;;;;5054338;28;20295;-89
2023/08/17 09:15:47;;;;;;;4.38;4.00;;;29.60;76.60;29.70;96648.00;;;;5055524;28;20247;-88
2023/08/17 09:18:14;;;;;;;4.35;4.05;;;29.70;76.30;29.80;96638.00;;;;5056333;28;20200;-90
2023/08/17 09:20:44;;;;;;;4.68;4.35;;;29.80;76.00;29.90;96633.00;;;;5055811;28;20271;-88
2023/08/17 09:23:14;;;;;;;4.70;4.30;;;30.00;76.60;30.10;96644.00;;;;5058839;28;20215;-86
2023/08/17 09:25:43;;;;;;;4.63;4.22;;;30.10;74.50;30.20;96639.00;;;;5054951;28;20266;-87
2023/08/17 09:28:14;;;;;;;4.43;4.13;;;30.20;74.10;30.30;96638.00;;;;5055128;28;20224;-88
2023/08/17 09:30:56;;;;;;;4.05;3.72;;;30.40;74.00;30.40;96635.00;;;;5055758;28;20225;-87
2023/08/17 09:33:26;;;;;;;4.13;3.83;;;30.50;73.80;30.60;96635.00;;;;5055031;28;20193;-87
2023/08/17 09:35:55;;;;;;;4.80;4.50;;;30.70;74.30;30.60;96642.00;;;;5055049;28;20201;-87
2023/08/17 09:38:24;;;;;;;4.88;4.47;;;30.80;73.50;30.80;96640.00;;;;5054841;28;20281;-86
2023/08/17 09:40:52;;;;;;;4.30;4.00;;;30.90;72.80;30.90;96633.00;;;;5054396;28;20216;-88
2023/08/17 09:43:22;;;;;;;4.28;3.97;;;30.90;72.80;31.00;96638.00;;;;5052611;28;20176;-87
2023/08/17 09:45:51;;;;;;;4.70;4.22;;;31.10;72.20;31.10;96634.00;;;;5053030;28;20278;-88
2023/08/17 09:48:20;;;;;;;5.68;4.40;;;31.20;72.10;31.20;96638.00;;;;5054892;28;20220;-88
2023/08/17 09:50:49;;;;;;;4.60;4.22;;;31.30;71.70;31.30;96636.00;;;;5053019;28;20270;-88
2023/08/17 09:53:19;;;;;;;4.72;4.32;;;31.40;71.90;31.40;96640.00;;;;5053465;28;20383;-89
2023/08/17 09:55:49;;;;;;;4.28;3.90;;;31.50;71.30;31.50;96641.00;;;;5051903;28;20247;-89
2023/08/17 09:58:17;;;;;;;5.72;4.20;;;31.60;71.10;31.60;96636.00;;;;5051760;28;20602;-89
2023/08/17 10:00:49;;;;;;;4.45;4.15;;;31.70;70.60;31.70;96633.00;;;;5052030;28;20690;-88
2023/08/17 10:03:18;;;;;;;4.43;4.13;;;31.80;69.40;31.80;96637.00;;;;5051610;28;20213;-87
2023/08/17 10:05:55;;;;;;;4.25;3.95;;;31.90;70.50;31.90;96635.00;;;;5051695;28;20708;-88
2023/08/17 10:08:23;;;;;;;4.30;4.00;;;32.00;70.20;32.00;96634.00;;;;5051702;28;20211;-88
2023/08/17 10:10:52;;;;;;;5.10;4.60;;;32.10;69.80;32.10;96634.00;;;;5054651;28;20641;-89
2023/08/17 10:13:31;;;;;;;5.03;4.55;;;32.20;68.00;32.20;96635.00;;;;5054561;28;20200;-89
2023/08/17 10:16:13;;;;;;;4.30;4.00;;;32.30;66.10;32.30;96628.00;;;;5054806;28;20212;-90
2023/08/17 10:18:56;;;;;;;4.88;4.47;;;32.40;67.00;32.40;96627.00;;;;5054476;28;20192;-89
2023/08/17 10:21:32;;;;;;;4.47;4.10;;;32.50;66.60;32.40;96630.00;;;;5053749;28;20217;-89
2023/08/17 10:24:00;;;;;;;4.93;4.53;;;32.60;67.40;32.50;96634.00;;;;5053838;28;20248;-88
2023/08/17 10:26:28;;;;;;;4.07;3.88;;;32.70;67.60;32.60;96634.00;;;;5054730;28;20275;-89
2023/08/17 10:28:58;;;;;;;4.18;3.90;;;32.80;67.60;32.80;96638.00;;;;5054678;28;20189;-89
2023/08/17 10:31:27;;;;;;;4.30;4.00;;;32.80;67.50;32.90;96622.00;;;;5055601;28;20216;-90
2023/08/17 10:33:55;;;;;;;5.40;3.70;;;33.00;67.70;32.90;96632.00;;;;5055621;28;20278;-89
2023/08/17 10:36:23;;;;;;;4.28;3.97;;;33.10;67.50;33.00;96631.00;;;;5055147;28;20251;-89
2023/08/17 10:39:20;;;;;;;4.03;3.80;;;33.20;66.50;33.10;96626.00;;;;5054933;28;20227;-87
2023/08/17 10:41:49;;;;;;;3.42;3.22;;;33.30;63.20;33.20;96629.00;;;;5051551;28;20220;-86
2023/08/17 10:44:18;;;;;;;3.83;3.60;;;33.40;64.70;33.30;96625.00;;;;5051050;28;20213;-86
2023/08/17 10:46:47;;;;;;;3.60;3.40;;;33.50;64.40;33.40;96619.00;;;;5050094;28;20284;-87
2023/08/17 10:49:29;;;;;;;4.22;3.90;;;33.60;64.20;33.50;96629.00;;;;5050330;28;20192;-88
2023/08/17 10:52:04;;;;;;;3.83;3.63;;;33.70;61.30;33.60;96621.00;;;;5047530;28;20244;-87
2023/08/17 10:54:38;;;;;;;4.40;4.18;;;33.80;62.20;33.60;96622.00;;;;5048719;28;20220;-88
2023/08/17 10:57:29;;;;;;;4.18;3.63;;;33.80;61.20;33.60;96627.00;;;;5050751;28;20203;-87
2023/08/17 11:00:26;;;;;;;3.95;3.65;;;33.80;61.00;33.60;96618.00;;;;5050449;28;20236;-87
2023/08/17 11:03:06;;;;;;;3.78;3.58;;;33.90;61.60;33.60;96617.00;;;;5040076;28;20204;-89
2023/08/17 11:05:49;;;;;;;4.03;3.83;;;33.80;61.70;33.50;96615.00;;;;5051334;28;20223;-88